createdAt,value
2023-04-12T00:00:54.466Z,6.55
2023-04-12T00:03:26.839Z,6.56
2023-04-12T00:05:59.882Z,6.49
2023-04-12T00:08:33.847Z,6.50
2023-04-12T00:11:05.718Z,6.50
2023-04-12T00:13:37.245Z,6.55
2023-04-12T00:16:09.748Z,6.55
2023-04-12T00:18:42.499Z,6.54
2023-04-12T00:21:19.461Z,6.57
2023-04-12T00:23:51.080Z,6.56
2023-04-12T00:26:22.593Z,6.55
2023-04-12T00:28:54.081Z,6.55
2023-04-12T00:31:25.664Z,6.61
2023-04-12T00:33:57.369Z,6.64
2023-04-12T00:36:29.025Z,6.67
2023-04-12T00:39:00.697Z,6.66
2023-04-12T00:41:32.196Z,6.68
2023-04-12T00:44:04.770Z,6.71
2023-04-12T00:46:36.344Z,6.74
2023-04-12T00:49:07.992Z,6.76
2023-04-12T00:51:40.081Z,6.78
2023-04-12T00:54:12.013Z,6.76
2023-04-12T00:56:44.892Z,6.80
2023-04-12T00:59:16.467Z,6.76
2023-04-12T01:01:48.060Z,6.76
2023-04-12T01:04:22.499Z,6.78
2023-04-12T01:07:20.036Z,6.79
2023-04-12T01:10:03.623Z,6.76
2023-04-12T01:12:55.568Z,6.78
2023-04-12T01:15:31.273Z,6.80
2023-04-12T01:18:07.939Z,6.73
2023-04-12T01:20:49.685Z,6.73
2023-04-12T01:23:51.981Z,6.78
2023-04-12T01:26:47.405Z,6.52
2023-04-12T01:29:21.654Z,6.54
2023-04-12T01:32:02.481Z,6.43
2023-04-12T01:34:36.879Z,6.43
2023-04-12T01:37:11.717Z,6.20
2023-04-12T01:39:43.255Z,6.16
2023-04-12T01:42:20.616Z,6.17
2023-04-12T01:44:52.091Z,6.12
2023-04-12T01:47:23.633Z,6.15
2023-04-12T01:50:23.608Z,6.18
2023-04-12T01:53:10.567Z,6.20
2023-04-12T01:55:45.903Z,6.21
2023-04-12T01:58:22.020Z,6.14
2023-04-12T02:00:55.798Z,6.08
2023-04-12T02:03:30.506Z,6.15
2023-04-12T02:06:03.481Z,6.12
2023-04-12T02:08:36.059Z,6.15
2023-04-12T02:11:11.642Z,6.10
2023-04-12T02:13:43.114Z,6.16
2023-04-12T02:16:14.650Z,6.14
2023-04-12T02:18:47.589Z,5.95
2023-04-12T02:21:19.110Z,5.95
2023-04-12T02:23:50.889Z,5.90
2023-04-12T02:26:23.430Z,5.83
2023-04-12T02:28:55.051Z,5.80
2023-04-12T02:31:27.820Z,5.70
2023-04-12T02:33:59.294Z,5.69
2023-04-12T02:36:30.808Z,5.77
2023-04-12T02:39:02.310Z,5.66
2023-04-12T02:41:33.993Z,5.57
2023-04-12T02:44:05.504Z,5.49
2023-04-12T02:46:37.073Z,5.30
2023-04-12T02:49:08.603Z,5.53
2023-04-12T02:51:40.756Z,5.60
2023-04-12T02:54:12.649Z,5.61
2023-04-12T02:56:44.232Z,5.52
2023-04-12T02:59:15.760Z,5.45
2023-04-12T03:01:47.384Z,5.55
2023-04-12T03:04:19.071Z,5.66
2023-04-12T03:06:53.827Z,5.69
2023-04-12T03:09:25.385Z,5.76
2023-04-12T03:11:59.830Z,5.82
2023-04-12T03:14:31.310Z,5.78
2023-04-12T03:17:02.835Z,5.82
2023-04-12T03:19:35.431Z,5.82
2023-04-12T03:22:06.932Z,5.89
2023-04-12T03:24:39.087Z,5.87
2023-04-12T03:27:10.710Z,5.79
2023-04-12T03:29:42.262Z,5.84
2023-04-12T03:32:13.822Z,5.90
2023-04-12T03:34:45.678Z,5.89
2023-04-12T03:37:17.246Z,5.94
2023-04-12T03:39:48.847Z,5.96
2023-04-12T03:42:32.387Z,5.96
2023-04-12T03:45:07.393Z,5.99
2023-04-12T03:47:39.011Z,6.01
2023-04-12T03:50:13.076Z,6.02
2023-04-12T03:52:44.858Z,6.07
2023-04-12T03:55:18.216Z,6.09
2023-04-12T03:57:49.980Z,6.08
2023-04-12T04:00:21.600Z,6.07
2023-04-12T04:02:53.183Z,6.11
2023-04-12T04:05:24.689Z,6.13
2023-04-12T04:07:56.981Z,6.12
2023-04-12T04:10:28.612Z,6.13
2023-04-12T04:13:00.210Z,6.15
2023-04-12T04:15:32.623Z,6.11
2023-04-12T04:18:04.168Z,6.00
2023-04-12T04:20:35.785Z,6.02
2023-04-12T04:23:10.357Z,6.01
2023-04-12T04:25:41.899Z,6.02
2023-04-12T04:28:15.989Z,6.02
2023-04-12T04:30:47.495Z,6.03
2023-04-12T04:33:19.977Z,6.02
2023-04-12T04:35:52.215Z,6.00
2023-04-12T04:38:26.199Z,5.97
2023-04-12T04:40:58.658Z,5.94
2023-04-12T04:43:31.321Z,5.94
2023-04-12T04:46:03.051Z,5.93
2023-04-12T04:48:34.620Z,5.94
2023-04-12T04:51:06.356Z,5.94
2023-04-12T04:53:38.409Z,5.94
2023-04-12T04:56:11.445Z,5.95
2023-04-12T04:58:42.956Z,5.95
2023-04-12T05:01:16.952Z,5.97
2023-04-12T05:03:49.937Z,5.97
2023-04-12T05:06:22.394Z,6.00
2023-04-12T05:08:53.980Z,6.01
2023-04-12T05:11:25.751Z,6.03
2023-04-12T05:13:57.295Z,6.05
2023-04-12T05:16:28.882Z,6.05
2023-04-12T05:19:01.971Z,6.07
2023-04-12T05:21:33.783Z,6.06
2023-04-12T05:24:05.822Z,6.07
2023-04-12T05:26:37.325Z,6.01
2023-04-12T05:29:12.260Z,6.00
2023-04-12T05:31:43.787Z,6.01
2023-04-12T05:34:15.475Z,6.02
2023-04-12T05:36:46.943Z,6.01
2023-04-12T05:39:20.524Z,6.02
2023-04-12T05:41:52.306Z,6.04
2023-04-12T05:44:23.788Z,6.08
2023-04-12T05:46:55.254Z,6.08
2023-04-12T05:49:32.192Z,6.15
2023-04-12T05:52:04.092Z,6.17
2023-04-12T05:54:35.658Z,6.17
2023-04-12T05:57:10.703Z,6.19
2023-04-12T05:59:42.362Z,6.21
2023-04-12T06:02:13.895Z,6.22
2023-04-12T06:04:50.820Z,6.27
2023-04-12T06:07:23.315Z,6.31
2023-04-12T06:09:54.821Z,6.33
2023-04-12T06:12:26.414Z,6.32
2023-04-12T06:14:57.973Z,6.37
2023-04-12T06:17:29.452Z,6.38
2023-04-12T06:20:01.007Z,6.41
2023-04-12T06:22:32.952Z,6.45
2023-04-12T06:25:05.324Z,6.50
2023-04-12T06:27:36.867Z,6.56
2023-04-12T06:30:09.189Z,6.62
2023-04-12T06:32:40.823Z,6.67
2023-04-12T06:35:12.360Z,6.66
2023-04-12T06:37:43.819Z,6.72
2023-04-12T06:40:15.711Z,6.81
2023-04-12T06:42:47.178Z,6.87
2023-04-12T06:45:19.016Z,6.90
2023-04-12T06:47:50.534Z,6.96
2023-04-12T06:50:25.085Z,7.01
2023-04-12T06:52:56.586Z,7.04
2023-04-12T06:55:29.219Z,7.05
2023-04-12T06:58:00.751Z,7.12
2023-04-12T07:00:32.641Z,7.16
2023-04-12T07:03:04.152Z,7.27
2023-04-12T07:05:39.261Z,7.37
2023-04-12T07:08:10.860Z,7.48
2023-04-12T07:10:42.365Z,7.57
2023-04-12T07:13:14.329Z,7.65
2023-04-12T07:15:46.585Z,7.68
2023-04-12T07:18:18.100Z,7.72
2023-04-12T07:20:53.043Z,7.73
2023-04-12T07:23:25.343Z,7.73
2023-04-12T07:26:00.870Z,7.75
2023-04-12T07:28:32.478Z,7.79
2023-04-12T07:31:07.602Z,7.80
2023-04-12T07:33:41.365Z,7.89
2023-04-12T07:36:16.698Z,8.02
2023-04-12T07:38:48.760Z,8.04
2023-04-12T07:41:20.488Z,8.18
2023-04-12T07:43:51.997Z,8.35
2023-04-12T07:46:23.537Z,8.48
2023-04-12T07:48:55.443Z,8.54
2023-04-12T07:51:27.124Z,8.56
2023-04-12T07:53:58.884Z,8.65
2023-04-12T07:56:33.276Z,8.68
2023-04-12T07:59:04.831Z,8.75
2023-04-12T08:01:36.979Z,8.77
2023-04-12T08:04:08.609Z,8.75
2023-04-12T08:06:40.688Z,8.78
2023-04-12T08:09:12.325Z,8.81
2023-04-12T08:11:43.884Z,8.83
2023-04-12T08:14:15.478Z,8.74
2023-04-12T08:16:47.083Z,8.67
2023-04-12T08:19:20.214Z,8.69
2023-04-12T08:21:52.552Z,8.70
2023-04-12T08:24:23.859Z,8.69
2023-04-12T08:26:56.115Z,8.66
2023-04-12T08:29:27.648Z,8.74
2023-04-12T08:32:00.836Z,8.80
2023-04-12T08:34:33.114Z,8.85
2023-04-12T08:37:04.789Z,8.76
2023-04-12T08:39:37.537Z,8.76
2023-04-12T08:42:09.985Z,8.80
2023-04-12T08:44:41.572Z,8.88
2023-04-12T08:47:13.183Z,8.99
2023-04-12T08:49:44.896Z,8.91
2023-04-12T08:52:17.409Z,8.91
2023-04-12T08:54:49.059Z,8.99
2023-04-12T08:57:22.080Z,9.07
2023-04-12T08:59:54.472Z,9.09
2023-04-12T09:02:26.411Z,9.22
2023-04-12T09:04:58.483Z,9.39
2023-04-12T09:07:31.169Z,9.53
2023-04-12T09:10:02.750Z,9.71
2023-04-12T09:12:34.568Z,9.96
2023-04-12T09:15:08.803Z,10.10
2023-04-12T09:17:41.475Z,10.34
2023-04-12T09:20:19.007Z,10.54
2023-04-12T09:22:52.693Z,10.64
2023-04-12T09:25:41.562Z,10.88
2023-04-12T09:28:27.186Z,10.99
2023-04-12T09:31:00.255Z,11.06
2023-04-12T09:33:39.532Z,11.19
2023-04-12T09:36:14.416Z,11.40
2023-04-12T09:39:05.283Z,11.29
2023-04-12T09:41:37.308Z,11.31
2023-04-12T09:44:08.852Z,11.40
2023-04-12T09:46:51.423Z,11.57
2023-04-12T09:49:42.964Z,11.68
2023-04-12T09:52:14.907Z,11.56
2023-04-12T09:54:50.733Z,11.69
2023-04-12T09:57:24.544Z,11.90
2023-04-12T10:00:00.399Z,11.99
2023-04-12T10:02:32.549Z,12.33
2023-04-12T10:05:04.901Z,12.60
2023-04-12T10:07:37.750Z,12.79
2023-04-12T10:10:12.536Z,12.65
2023-04-12T10:12:47.029Z,12.56
2023-04-12T10:15:21.604Z,12.64
2023-04-12T10:17:54.915Z,12.69
2023-04-12T10:20:29.289Z,12.84
2023-04-12T10:23:01.407Z,12.97
2023-04-12T10:25:33.079Z,13.11
2023-04-12T10:28:14.885Z,13.14
2023-04-12T10:30:49.353Z,13.38
2023-04-12T10:33:27.093Z,13.64
2023-04-12T10:36:06.944Z,14.16
2023-04-12T10:39:05.894Z,14.60
2023-04-12T10:41:37.586Z,14.96
2023-04-12T10:44:28.185Z,15.02
2023-04-12T10:46:59.827Z,15.20
2023-04-12T10:49:32.305Z,15.42
2023-04-12T10:52:10.481Z,15.19
2023-04-12T10:54:42.291Z,15.16
2023-04-12T10:57:47.848Z,15.06
2023-04-12T11:00:20.303Z,15.01
2023-04-12T11:03:07.560Z,14.96
2023-04-12T11:06:06.440Z,14.81
2023-04-12T11:08:45.330Z,14.58
2023-04-12T11:11:22.670Z,14.74
2023-04-12T11:13:55.459Z,14.82
2023-04-12T11:16:29.614Z,14.87
2023-04-12T11:19:06.358Z,14.96
2023-04-12T11:21:38.160Z,14.93
2023-04-12T11:24:09.664Z,15.04
2023-04-12T11:26:44.790Z,15.01
2023-04-12T11:29:24.021Z,14.88
2023-04-12T11:31:56.154Z,14.81
2023-04-12T11:34:32.164Z,14.86
2023-04-12T11:37:08.112Z,14.88
2023-04-12T11:39:44.425Z,14.67
2023-04-12T11:42:17.963Z,14.63
2023-04-12T11:44:56.460Z,14.76
2023-04-12T11:47:29.716Z,14.78
2023-04-12T11:50:01.418Z,14.73
2023-04-12T11:52:33.707Z,14.62
2023-04-12T11:55:11.240Z,14.59
2023-04-12T11:57:43.007Z,14.44
2023-04-12T12:00:15.380Z,14.60
2023-04-12T12:02:56.202Z,14.67
2023-04-12T12:05:41.537Z,14.87
2023-04-12T12:08:13.884Z,15.05
2023-04-12T12:11:04.026Z,15.11
2023-04-12T12:13:56.877Z,15.18
2023-04-12T12:16:30.172Z,14.85
2023-04-12T12:19:07.169Z,14.90
2023-04-12T12:21:38.866Z,15.08
2023-04-12T12:24:14.302Z,15.22
2023-04-12T12:26:46.056Z,15.44
2023-04-12T12:29:23.430Z,15.60
2023-04-12T12:31:55.148Z,15.53
2023-04-12T12:34:31.209Z,15.27
2023-04-12T12:37:02.781Z,14.96
2023-04-12T12:39:34.556Z,15.31
2023-04-12T12:42:06.456Z,15.57
2023-04-12T12:44:38.083Z,15.63
2023-04-12T12:47:14.154Z,15.27
2023-04-12T12:49:46.368Z,15.26
2023-04-12T12:52:19.842Z,15.28
2023-04-12T12:54:51.426Z,14.93
2023-04-12T12:57:22.990Z,15.08
2023-04-12T12:59:54.482Z,15.09
2023-04-12T13:02:26.145Z,15.29
2023-04-12T13:04:58.610Z,15.47
2023-04-12T13:07:30.169Z,15.39
2023-04-12T13:10:02.180Z,15.21
2023-04-12T13:12:34.504Z,15.09
2023-04-12T13:15:21.408Z,15.05
2023-04-12T13:17:55.367Z,14.90
2023-04-12T13:20:27.779Z,14.80
2023-04-12T13:23:01.883Z,14.68
2023-04-12T13:25:33.603Z,14.10
2023-04-12T13:28:05.186Z,13.99
2023-04-12T13:30:36.668Z,13.60
2023-04-12T13:33:09.125Z,13.52
2023-04-12T13:35:40.744Z,13.42
2023-04-12T13:38:12.290Z,13.38
2023-04-12T13:40:43.800Z,13.31
2023-04-12T13:43:16.648Z,13.30
2023-04-12T13:45:48.241Z,13.21
2023-04-12T13:48:19.882Z,13.24
2023-04-12T13:50:55.554Z,13.28
2023-04-12T13:53:27.252Z,13.41
2023-04-12T13:55:58.732Z,13.59
2023-04-12T13:58:30.237Z,13.66
2023-04-12T14:01:02.195Z,14.00
2023-04-12T14:03:34.141Z,14.42
2023-04-12T14:06:09.526Z,15.17
2023-04-12T14:08:41.065Z,14.80
2023-04-12T14:11:12.551Z,14.89
2023-04-12T14:13:44.096Z,14.93
2023-04-12T14:16:15.772Z,15.03
2023-04-12T14:18:47.369Z,15.30
2023-04-12T14:21:18.885Z,15.33
2023-04-12T14:23:50.421Z,15.21
2023-04-12T14:26:22.041Z,14.79
2023-04-12T14:28:54.051Z,14.99
2023-04-12T14:31:25.863Z,14.70
2023-04-12T14:33:59.851Z,14.71
2023-04-12T14:36:33.349Z,14.64
2023-04-12T14:39:07.597Z,14.58
2023-04-12T14:41:41.368Z,14.60
2023-04-12T14:44:16.216Z,14.26
2023-04-12T14:46:49.096Z,14.48
2023-04-12T14:49:20.868Z,14.41
2023-04-12T14:51:52.421Z,14.37
2023-04-12T14:54:24.034Z,14.29
2023-04-12T14:56:56.746Z,14.25
2023-04-12T14:59:28.434Z,14.11
2023-04-12T15:02:00.205Z,13.91
2023-04-12T15:04:31.928Z,13.80
2023-04-12T15:07:03.624Z,13.77
2023-04-12T15:09:35.531Z,13.79
2023-04-12T15:12:07.273Z,13.77
2023-04-12T15:14:38.891Z,13.68
2023-04-12T15:17:10.764Z,13.56
2023-04-12T15:19:42.314Z,13.53
2023-04-12T15:22:13.872Z,13.47
2023-04-12T15:24:45.612Z,13.52
2023-04-12T15:27:17.145Z,13.51
2023-04-12T15:29:49.701Z,13.42
2023-04-12T15:32:21.645Z,13.43
2023-04-12T15:34:55.519Z,13.29
2023-04-12T15:37:27.103Z,13.24
2023-04-12T15:39:58.960Z,13.23
2023-04-12T15:42:30.472Z,13.19
2023-04-12T15:45:02.052Z,13.09
2023-04-12T15:47:33.702Z,13.12
2023-04-12T15:50:08.558Z,13.19
2023-04-12T15:52:42.963Z,13.22
2023-04-12T15:55:18.486Z,13.28
2023-04-12T15:57:49.985Z,13.41
2023-04-12T16:00:26.346Z,13.34
2023-04-12T16:02:58.460Z,13.32
2023-04-12T16:05:34.699Z,13.32
2023-04-12T16:08:06.858Z,13.20
2023-04-12T16:10:39.291Z,13.25
2023-04-12T16:13:10.883Z,13.17
2023-04-12T16:15:42.432Z,13.07
2023-04-12T16:18:14.265Z,13.01
2023-04-12T16:20:46.322Z,13.00
2023-04-12T16:23:17.941Z,12.98
2023-04-12T16:25:49.421Z,13.03
2023-04-12T16:28:22.623Z,13.02
2023-04-12T16:30:55.094Z,13.00
2023-04-12T16:33:27.305Z,12.97
2023-04-12T16:35:58.681Z,12.94
2023-04-12T16:38:30.878Z,12.87
2023-04-12T16:41:02.463Z,12.80
2023-04-12T16:43:34.068Z,12.73
2023-04-12T16:46:06.609Z,12.76
2023-04-12T16:48:41.614Z,12.73
2023-04-12T16:51:13.163Z,12.71
2023-04-12T16:53:44.724Z,12.62
2023-04-12T16:56:17.202Z,12.58
2023-04-12T16:58:48.936Z,12.57
2023-04-12T17:01:21.383Z,12.57
2023-04-12T17:03:55.176Z,12.52
2023-04-12T17:06:30.356Z,12.50
2023-04-12T17:09:02.015Z,12.50
2023-04-12T17:11:33.542Z,12.46
2023-04-12T17:14:05.150Z,12.45
2023-04-12T17:16:36.827Z,12.46
2023-04-12T17:19:10.605Z,12.41
2023-04-12T17:21:42.502Z,12.34
2023-04-12T17:24:15.462Z,12.35
2023-04-12T17:26:47.021Z,12.35
2023-04-12T17:29:19.672Z,12.26
2023-04-12T17:31:53.200Z,12.12
2023-04-12T17:34:27.183Z,12.10
2023-04-12T17:36:58.697Z,12.08
2023-04-12T17:39:30.358Z,12.08
2023-04-12T17:42:02.128Z,12.00
2023-04-12T17:44:33.759Z,12.04
2023-04-12T17:47:05.314Z,12.00
2023-04-12T17:49:37.145Z,11.96
2023-04-12T17:52:08.900Z,11.96
2023-04-12T17:54:40.692Z,11.91
2023-04-12T17:57:12.178Z,11.90
2023-04-12T17:59:43.863Z,11.90
2023-04-12T18:02:17.167Z,11.90
2023-04-12T18:04:48.997Z,11.89
2023-04-12T18:07:21.355Z,11.91
2023-04-12T18:09:52.763Z,11.88
2023-04-12T18:12:24.453Z,11.86
2023-04-12T18:14:56.014Z,11.78
2023-04-12T18:17:27.645Z,11.66
2023-04-12T18:20:01.287Z,11.56
2023-04-12T18:22:34.256Z,11.44
2023-04-12T18:25:07.778Z,11.20
2023-04-12T18:27:41.155Z,11.16
2023-04-12T18:30:17.272Z,11.04
2023-04-12T18:32:48.868Z,10.82
2023-04-12T18:35:20.893Z,10.79
2023-04-12T18:37:52.736Z,10.73
2023-04-12T18:40:24.346Z,10.59
2023-04-12T18:42:58.178Z,10.49
2023-04-12T18:45:31.100Z,10.28
2023-04-12T18:48:03.365Z,10.26
2023-04-12T18:50:41.066Z,10.14
2023-04-12T18:53:12.757Z,10.08
2023-04-12T18:55:46.771Z,9.97
2023-04-12T18:58:18.536Z,9.91
2023-04-12T19:00:50.584Z,9.80
2023-04-12T19:03:23.048Z,9.74
2023-04-12T19:05:55.710Z,9.76
2023-04-12T19:08:28.994Z,9.77
2023-04-12T19:11:00.510Z,9.77
2023-04-12T19:13:36.868Z,9.78
2023-04-12T19:16:08.562Z,9.70
2023-04-12T19:18:40.134Z,9.67
2023-04-12T19:21:11.649Z,9.59
2023-04-12T19:23:44.767Z,9.56
2023-04-12T19:26:17.226Z,9.56
2023-04-12T19:28:52.781Z,9.43
2023-04-12T19:31:24.474Z,9.49
2023-04-12T19:33:56.408Z,9.43
2023-04-12T19:36:28.517Z,9.38
2023-04-12T19:39:01.870Z,9.28
2023-04-12T19:41:34.439Z,9.33
2023-04-12T19:44:06.820Z,9.32
2023-04-12T19:46:38.966Z,9.31
2023-04-12T19:49:12.943Z,9.25
2023-04-12T19:51:46.511Z,9.30
2023-04-12T19:54:18.953Z,9.35
2023-04-12T19:56:50.528Z,9.38
2023-04-12T19:59:24.538Z,9.26
2023-04-12T20:01:58.419Z,9.25
2023-04-12T20:04:30.176Z,9.15
2023-04-12T20:07:04.859Z,9.18
2023-04-12T20:09:36.456Z,9.19
2023-04-12T20:12:09.291Z,9.15
2023-04-12T20:14:41.141Z,9.21
2023-04-12T20:17:13.370Z,9.16
2023-04-12T20:19:44.814Z,9.18
2023-04-12T20:22:18.099Z,9.08
2023-04-12T20:24:53.846Z,9.12
2023-04-12T20:27:25.398Z,9.13
2023-04-12T20:29:59.294Z,8.92
2023-04-12T20:32:30.934Z,8.80
2023-04-12T20:35:06.003Z,8.87
2023-04-12T20:37:37.574Z,8.82
2023-04-12T20:40:09.645Z,8.76
2023-04-12T20:42:42.553Z,8.91
2023-04-12T20:45:16.936Z,8.97
2023-04-12T20:47:48.819Z,9.01
2023-04-12T20:50:22.510Z,8.98
2023-04-12T20:52:57.072Z,8.89
2023-04-12T20:55:34.078Z,8.80
2023-04-12T20:58:08.261Z,8.66
2023-04-12T21:00:40.253Z,8.66
2023-04-12T21:03:13.168Z,8.72
2023-04-12T21:05:46.075Z,8.68
2023-04-12T21:08:18.722Z,8.69
2023-04-12T21:10:50.876Z,8.57
2023-04-12T21:13:22.692Z,8.42
2023-04-12T21:15:56.998Z,8.39
2023-04-12T21:18:28.517Z,8.46
2023-04-12T21:21:00.760Z,8.44
2023-04-12T21:23:35.681Z,8.43
2023-04-12T21:26:07.153Z,8.39
2023-04-12T21:28:38.816Z,8.39
2023-04-12T21:31:10.443Z,8.38
2023-04-12T21:33:42.052Z,8.36
2023-04-12T21:36:14.419Z,8.36
2023-04-12T21:38:46.546Z,8.32
2023-04-12T21:41:18.079Z,8.22
2023-04-12T21:43:49.635Z,8.19
2023-04-12T21:46:21.503Z,8.07
2023-04-12T21:48:53.574Z,8.10
2023-04-12T21:51:26.407Z,8.09
2023-04-12T21:53:57.944Z,8.00
2023-04-12T21:56:29.459Z,7.99
2023-04-12T21:59:01.945Z,8.05
2023-04-12T22:01:33.617Z,8.09
2023-04-12T22:04:05.935Z,8.14
2023-04-12T22:06:37.367Z,8.22
2023-04-12T22:09:08.862Z,8.28
2023-04-12T22:11:40.682Z,8.32
2023-04-12T22:14:12.757Z,8.28
2023-04-12T22:16:45.178Z,8.31
2023-04-12T22:19:17.095Z,8.27
2023-04-12T22:21:49.196Z,8.28
2023-04-12T22:24:21.218Z,8.13
2023-04-12T22:26:56.252Z,8.13
2023-04-12T22:29:27.753Z,8.04
2023-04-12T22:31:59.715Z,8.07
2023-04-12T22:34:32.401Z,8.12
2023-04-12T22:37:04.395Z,8.13
2023-04-12T22:39:36.462Z,8.20
2023-04-12T22:42:08.047Z,8.21
2023-04-12T22:44:39.940Z,8.19
2023-04-12T22:47:13.219Z,8.21
2023-04-12T22:49:46.552Z,8.23
2023-04-12T22:52:18.062Z,8.26
2023-04-12T22:54:49.850Z,8.28
2023-04-12T22:57:21.815Z,8.26
2023-04-12T22:59:53.614Z,8.30
2023-04-12T23:02:25.188Z,8.31
2023-04-12T23:04:56.711Z,8.34
2023-04-12T23:07:30.194Z,8.34
2023-04-12T23:10:02.011Z,8.36
2023-04-12T23:12:33.550Z,8.36
2023-04-12T23:15:05.674Z,8.30
2023-04-12T23:17:37.310Z,8.21
2023-04-12T23:20:14.878Z,8.27
2023-04-12T23:22:56.696Z,8.31
2023-04-12T23:25:39.779Z,8.32
2023-04-12T23:28:15.860Z,8.33
2023-04-12T23:30:51.351Z,8.35
2023-04-12T23:33:25.182Z,8.35
2023-04-12T23:35:57.014Z,8.33
2023-04-12T23:38:32.669Z,8.33
2023-04-12T23:41:07.014Z,8.24
2023-04-12T23:43:38.585Z,8.19
2023-04-12T23:46:10.270Z,7.93
2023-04-12T23:48:42.150Z,7.76
2023-04-12T23:51:13.976Z,7.79
2023-04-12T23:53:45.491Z,7.44
2023-04-12T23:56:17.149Z,7.33
2023-04-12T23:58:48.702Z,7.24
